sensor_id;sensor_type;location;lat;lon;timestamp;pressure;altitude;pressure_sealevel;temperature;humidity
54920;BME280;63804;53.120;8.764;2023-04-03T00:02:05;103377.88;;;1.63;62.96
54920;BME280;63804;53.120;8.764;2023-04-03T00:04:30;103375.25;;;1.65;63.13
54920;BME280;63804;53.120;8.764;2023-04-03T00:06:56;103370.91;;;1.61;63.36
54920;BME280;63804;53.120;8.764;2023-04-03T00:09:21;103372.66;;;1.47;63.57
54920;BME280;63804;53.120;8.764;2023-04-03T00:11:47;103376.19;;;1.20;64.73
54920;BME280;63804;53.120;8.764;2023-04-03T00:14:12;103363.13;;;1.29;64.88
54920;BME280;63804;53.120;8.764;2023-04-03T00:16:38;103364.88;;;1.28;64.76
54920;BME280;63804;53.120;8.764;2023-04-03T00:19:03;103370.94;;;1.27;64.70
54920;BME280;63804;53.120;8.764;2023-04-03T00:21:29;103375.31;;;1.39;64.37
54920;BME280;63804;53.120;8.764;2023-04-03T00:23:55;103370.06;;;1.51;63.76
54920;BME280;63804;53.120;8.764;2023-04-03T00:26:20;103377.03;;;1.51;63.72
54920;BME280;63804;53.120;8.764;2023-04-03T00:28:46;103382.25;;;1.57;63.61
54920;BME280;63804;53.120;8.764;2023-04-03T00:31:14;103384.91;;;1.52;63.81
54920;BME280;63804;53.120;8.764;2023-04-03T00:33:40;103384.94;;;1.22;64.72
54920;BME280;63804;53.120;8.764;2023-04-03T00:36:07;103397.16;;;1.33;64.46
54920;BME280;63804;53.120;8.764;2023-04-03T00:38:32;103385.81;;;1.33;64.78
54920;BME280;63804;53.120;8.764;2023-04-03T00:40:58;103392.78;;;1.29;64.65
54920;BME280;63804;53.120;8.764;2023-04-03T00:43:25;103394.53;;;1.30;64.53
54920;BME280;63804;53.120;8.764;2023-04-03T00:45:53;103394.50;;;1.32;64.63
54920;BME280;63804;53.120;8.764;2023-04-03T00:48:42;103401.50;;;1.27;64.68
54920;BME280;63804;53.120;8.764;2023-04-03T00:51:10;103405.88;;;1.20;64.92
54920;BME280;63804;53.120;8.764;2023-04-03T00:53:49;103402.41;;;1.21;64.93
54920;BME280;63804;53.120;8.764;2023-04-03T00:56:18;103405.00;;;0.98;65.67
54920;BME280;63804;53.120;8.764;2023-04-03T00:58:55;103397.13;;;0.83;66.38
54920;BME280;63804;53.120;8.764;2023-04-03T01:01:25;103389.28;;;0.92;65.99
54920;BME280;63804;53.120;8.764;2023-04-03T01:03:51;103397.13;;;1.12;65.11
54920;BME280;63804;53.120;8.764;2023-04-03T01:06:20;103398.03;;;1.09;65.27
54920;BME280;63804;53.120;8.764;2023-04-03T01:08:48;103391.88;;;0.93;65.84
54920;BME280;63804;53.120;8.764;2023-04-03T01:11:15;103401.50;;;1.07;65.45
54920;BME280;63804;53.120;8.764;2023-04-03T01:13:40;103398.00;;;1.05;65.52
54920;BME280;63804;53.120;8.764;2023-04-03T01:16:07;103398.84;;;0.82;66.03
54920;BME280;63804;53.120;8.764;2023-04-03T01:18:33;103404.13;;;0.87;66.12
54920;BME280;63804;53.120;8.764;2023-04-03T01:26:05;103418.94;;;0.83;66.07
54920;BME280;63804;53.120;8.764;2023-04-03T01:28:33;103420.69;;;0.90;65.98
54920;BME280;63804;53.120;8.764;2023-04-03T01:33:35;103418.06;;;0.89;65.88
54920;BME280;63804;53.120;8.764;2023-04-03T01:36:01;103422.44;;;0.87;65.97
54920;BME280;63804;53.120;8.764;2023-04-03T01:38:27;103425.91;;;0.89;65.73
54920;BME280;63804;53.120;8.764;2023-04-03T01:40:52;103424.16;;;0.80;66.32
54920;BME280;63804;53.120;8.764;2023-04-03T01:43:18;103426.72;;;0.62;66.72
54920;BME280;63804;53.120;8.764;2023-04-03T01:45:43;103427.59;;;0.62;66.76
54920;BME280;63804;53.120;8.764;2023-04-03T01:48:09;103421.53;;;0.68;66.90
54920;BME280;63804;53.120;8.764;2023-04-03T01:50:35;103430.25;;;0.76;66.28
54920;BME280;63804;53.120;8.764;2023-04-03T01:53:00;103431.13;;;0.74;66.47
54920;BME280;63804;53.120;8.764;2023-04-03T01:55:26;103428.53;;;0.80;66.21
54920;BME280;63804;53.120;8.764;2023-04-03T01:57:54;103425.03;;;0.79;66.31
54920;BME280;63804;53.120;8.764;2023-04-03T02:00:20;103433.69;;;0.54;67.06
54920;BME280;63804;53.120;8.764;2023-04-03T02:03:11;103433.66;;;0.51;67.45
54920;BME280;63804;53.120;8.764;2023-04-03T02:06:32;103436.31;;;0.52;67.15
54920;BME280;63804;53.120;8.764;2023-04-03T02:09:23;103428.47;;;0.58;67.07
54920;BME280;63804;53.120;8.764;2023-04-03T02:12:15;103429.34;;;0.66;66.44
54920;BME280;63804;53.120;8.764;2023-04-03T02:15:28;103438.06;;;0.59;67.17
54920;BME280;63804;53.120;8.764;2023-04-03T02:18:31;103433.69;;;0.49;67.63
54920;BME280;63804;53.120;8.764;2023-04-03T02:24:38;103434.47;;;0.36;67.64
54920;BME280;63804;53.120;8.764;2023-04-03T02:27:26;103433.63;;;0.40;67.50
54920;BME280;63804;53.120;8.764;2023-04-03T02:30:19;103433.56;;;0.20;68.09
54920;BME280;63804;53.120;8.764;2023-04-03T02:33:01;103436.19;;;0.25;68.47
54920;BME280;63804;53.120;8.764;2023-04-03T02:38:42;103441.47;;;0.29;67.95
54920;BME280;63804;53.120;8.764;2023-04-03T02:44:10;103445.63;;;-0.08;69.72
54920;BME280;63804;53.120;8.764;2023-04-03T02:47:17;103450.03;;;0.04;69.01
54920;BME280;63804;53.120;8.764;2023-04-03T02:49:45;103439.63;;;0.17;68.87
54920;BME280;63804;53.120;8.764;2023-04-03T02:55:29;103442.22;;;0.10;69.08
54920;BME280;63804;53.120;8.764;2023-04-03T02:57:55;103448.41;;;0.30;68.49
54920;BME280;63804;53.120;8.764;2023-04-03T03:00:20;103445.84;;;0.38;68.03
54920;BME280;63804;53.120;8.764;2023-04-03T03:02:46;103444.09;;;0.40;67.78
54920;BME280;63804;53.120;8.764;2023-04-03T03:05:11;103448.50;;;0.50;67.55
54920;BME280;63804;53.120;8.764;2023-04-03T03:07:37;103443.22;;;0.44;67.68
54920;BME280;63804;53.120;8.764;2023-04-03T03:10:02;103443.22;;;0.35;67.94
54920;BME280;63804;53.120;8.764;2023-04-03T03:12:28;103437.94;;;0.26;68.32
54920;BME280;63804;53.120;8.764;2023-04-03T03:14:53;103444.91;;;0.24;68.39
54920;BME280;63804;53.120;8.764;2023-04-03T03:17:19;103448.44;;;0.36;68.12
54920;BME280;63804;53.120;8.764;2023-04-03T03:19:45;103441.41;;;0.23;68.30
54920;BME280;63804;53.120;8.764;2023-04-03T03:22:11;103445.81;;;0.30;68.35
54920;BME280;63804;53.120;8.764;2023-04-03T03:24:36;103446.66;;;0.26;68.36
54920;BME280;63804;53.120;8.764;2023-04-03T03:27:02;103452.81;;;0.33;68.16
54920;BME280;63804;53.120;8.764;2023-04-03T03:29:28;103448.38;;;0.19;68.20
54920;BME280;63804;53.120;8.764;2023-04-03T03:31:53;103448.34;;;0.16;68.79
54920;BME280;63804;53.120;8.764;2023-04-03T03:34:19;103451.91;;;0.29;68.19
54920;BME280;63804;53.120;8.764;2023-04-03T03:36:44;103449.31;;;0.29;68.10
54920;BME280;63804;53.120;8.764;2023-04-03T03:39:10;103451.91;;;0.31;68.34
54920;BME280;63804;53.120;8.764;2023-04-03T03:41:35;103443.19;;;0.26;68.40
54920;BME280;63804;53.120;8.764;2023-04-03T03:44:01;103441.44;;;0.26;68.18
54920;BME280;63804;53.120;8.764;2023-04-03T03:46:27;103446.63;;;0.25;68.27
54920;BME280;63804;53.120;8.764;2023-04-03T03:48:52;103444.00;;;0.17;68.45
54920;BME280;63804;53.120;8.764;2023-04-03T03:51:18;103443.88;;;-0.09;69.02
54920;BME280;63804;53.120;8.764;2023-04-03T03:53:43;103444.66;;;-0.18;69.97
54920;BME280;63804;53.120;8.764;2023-04-03T03:56:09;103447.41;;;0.05;69.27
54920;BME280;63804;53.120;8.764;2023-04-03T03:58:35;103450.91;;;0.04;68.80
54920;BME280;63804;53.120;8.764;2023-04-03T04:01:04;103448.94;;;-0.32;70.10
54920;BME280;63804;53.120;8.764;2023-04-03T04:03:30;103455.59;;;-0.72;71.72
54920;BME280;63804;53.120;8.764;2023-04-03T04:05:56;103457.47;;;-0.58;71.64
54920;BME280;63804;53.120;8.764;2023-04-03T04:08:22;103458.22;;;-0.68;71.86
54920;BME280;63804;53.120;8.764;2023-04-03T04:10:48;103458.97;;;-0.84;72.39
54920;BME280;63804;53.120;8.764;2023-04-03T04:13:13;103458.94;;;-0.86;72.46
54920;BME280;63804;53.120;8.764;2023-04-03T04:15:39;103461.56;;;-0.84;72.39
54920;BME280;63804;53.120;8.764;2023-04-03T04:18:04;103465.13;;;-0.74;72.57
54920;BME280;63804;53.120;8.764;2023-04-03T04:20:30;103468.66;;;-0.69;72.31
54920;BME280;63804;53.120;8.764;2023-04-03T04:22:55;103471.47;;;-0.45;71.19
54920;BME280;63804;53.120;8.764;2023-04-03T04:25:21;103475.69;;;-0.61;71.76
54920;BME280;63804;53.120;8.764;2023-04-03T04:27:46;103474.19;;;-0.31;70.86
54920;BME280;63804;53.120;8.764;2023-04-03T04:30:13;103469.88;;;-0.27;70.31
54920;BME280;63804;53.120;8.764;2023-04-03T04:32:38;103479.34;;;-0.43;70.78
54920;BME280;63804;53.120;8.764;2023-04-03T04:35:04;103478.41;;;-0.48;71.10
54920;BME280;63804;53.120;8.764;2023-04-03T04:37:31;103486.31;;;-0.38;70.67
54920;BME280;63804;53.120;8.764;2023-04-03T04:39:56;103490.72;;;-0.34;70.50
54920;BME280;63804;53.120;8.764;2023-04-03T04:42:22;103489.81;;;-0.39;70.76
54920;BME280;63804;53.120;8.764;2023-04-03T04:44:47;103498.56;;;-0.35;70.56
54920;BME280;63804;53.120;8.764;2023-04-03T04:47:13;103493.22;;;-0.44;71.10
54920;BME280;63804;53.120;8.764;2023-04-03T04:49:38;103494.09;;;-0.47;71.01
54920;BME280;63804;53.120;8.764;2023-04-03T04:52:04;103500.22;;;-0.42;71.21
54920;BME280;63804;53.120;8.764;2023-04-03T04:54:30;103498.44;;;-0.49;71.08
54920;BME280;63804;53.120;8.764;2023-04-03T04:56:56;103494.06;;;-0.50;71.54
54920;BME280;63804;53.120;8.764;2023-04-03T04:59:21;103503.81;;;-0.29;70.81
54920;BME280;63804;53.120;8.764;2023-04-03T05:01:47;103509.97;;;-0.24;70.54
54920;BME280;63804;53.120;8.764;2023-04-03T05:04:12;103497.75;;;-0.28;70.62
54920;BME280;63804;53.120;8.764;2023-04-03T05:06:39;103502.03;;;-0.35;70.94
54920;BME280;63804;53.120;8.764;2023-04-03T05:09:04;103503.03;;;-0.20;70.46
54920;BME280;63804;53.120;8.764;2023-04-03T05:11:30;103510.81;;;-0.23;70.30
54920;BME280;63804;53.120;8.764;2023-04-03T05:13:56;103515.13;;;-0.32;70.62
54920;BME280;63804;53.120;8.764;2023-04-03T05:16:21;103512.53;;;-0.25;70.54
54920;BME280;63804;53.120;8.764;2023-04-03T05:18:47;103511.72;;;-0.18;70.30
54920;BME280;63804;53.120;8.764;2023-04-03T05:21:12;103511.75;;;-0.15;70.19
54920;BME280;63804;53.120;8.764;2023-04-03T05:23:38;103509.09;;;-0.21;70.55
54920;BME280;63804;53.120;8.764;2023-04-03T05:26:04;103505.56;;;-0.26;70.44
54920;BME280;63804;53.120;8.764;2023-04-03T05:28:29;103515.03;;;-0.41;71.25
54920;BME280;63804;53.120;8.764;2023-04-03T05:30:56;103508.28;;;-0.14;70.39
54920;BME280;63804;53.120;8.764;2023-04-03T05:33:23;103516.13;;;-0.10;70.10
54920;BME280;63804;53.120;8.764;2023-04-03T05:35:49;103515.25;;;-0.16;70.59
54920;BME280;63804;53.120;8.764;2023-04-03T05:38:15;103514.47;;;0.00;69.91
54920;BME280;63804;53.120;8.764;2023-04-03T05:40:40;103514.38;;;-0.15;70.27
54920;BME280;63804;53.120;8.764;2023-04-03T05:43:06;103512.72;;;-0.01;70.08
54920;BME280;63804;53.120;8.764;2023-04-03T05:45:31;103522.34;;;0.09;69.42
54920;BME280;63804;53.120;8.764;2023-04-03T05:47:57;103526.72;;;0.09;69.72
54920;BME280;63804;53.120;8.764;2023-04-03T05:50:22;103522.44;;;0.18;69.17
54920;BME280;63804;53.120;8.764;2023-04-03T05:52:49;103528.56;;;0.24;69.33
54920;BME280;63804;53.120;8.764;2023-04-03T05:55:16;103531.19;;;0.25;69.33
54920;BME280;63804;53.120;8.764;2023-04-03T05:57:41;103536.34;;;0.17;69.21
54920;BME280;63804;53.120;8.764;2023-04-03T06:00:08;103541.53;;;0.07;69.79
54920;BME280;63804;53.120;8.764;2023-04-03T06:02:38;103530.31;;;0.26;69.48
54920;BME280;63804;53.120;8.764;2023-04-03T06:05:03;103535.59;;;0.35;68.78
54920;BME280;63804;53.120;8.764;2023-04-03T06:07:29;103535.63;;;0.38;69.03
54920;BME280;63804;53.120;8.764;2023-04-03T06:09:56;103542.56;;;0.36;68.64
54920;BME280;63804;53.120;8.764;2023-04-03T06:12:22;103545.19;;;0.35;69.29
54920;BME280;63804;53.120;8.764;2023-04-03T06:14:48;103549.59;;;0.45;68.84
54920;BME280;63804;53.120;8.764;2023-04-03T06:17:15;103554.03;;;0.60;68.40
54920;BME280;63804;53.120;8.764;2023-04-03T06:19:41;103552.28;;;0.60;68.64
54920;BME280;63804;53.120;8.764;2023-04-03T06:22:06;103550.56;;;0.61;68.31
54920;BME280;63804;53.120;8.764;2023-04-03T06:24:33;103554.06;;;0.67;68.37
54920;BME280;63804;53.120;8.764;2023-04-03T06:26:59;103553.19;;;0.68;68.24
54920;BME280;63804;53.120;8.764;2023-04-03T06:29:25;103548.00;;;0.78;68.15
54920;BME280;63804;53.120;8.764;2023-04-03T06:31:51;103553.22;;;0.73;68.15
54920;BME280;63804;53.120;8.764;2023-04-03T06:34:17;103554.13;;;0.83;68.12
54920;BME280;63804;53.120;8.764;2023-04-03T06:36:43;103554.16;;;0.92;67.91
54920;BME280;63804;53.120;8.764;2023-04-03T06:39:15;103556.81;;;0.98;67.82
54920;BME280;63804;53.120;8.764;2023-04-03T06:41:42;103553.25;;;0.84;68.16
54920;BME280;63804;53.120;8.764;2023-04-03T06:44:07;103555.06;;;0.99;67.82
54920;BME280;63804;53.120;8.764;2023-04-03T06:46:37;103558.56;;;1.04;67.23
54920;BME280;63804;53.120;8.764;2023-04-03T06:49:03;103565.56;;;1.02;67.47
54920;BME280;63804;53.120;8.764;2023-04-03T06:51:30;103572.50;;;1.01;67.38
54920;BME280;63804;53.120;8.764;2023-04-03T06:53:58;103576.03;;;1.09;67.18
54920;BME280;63804;53.120;8.764;2023-04-03T06:56:25;103577.78;;;1.15;67.62
54920;BME280;63804;53.120;8.764;2023-04-03T06:58:53;103581.28;;;1.20;67.55
54920;BME280;63804;53.120;8.764;2023-04-03T07:01:20;103587.41;;;1.22;67.08
54920;BME280;63804;53.120;8.764;2023-04-03T07:03:46;103590.06;;;1.30;67.28
54920;BME280;63804;53.120;8.764;2023-04-03T07:06:14;103590.06;;;1.33;66.94
54920;BME280;63804;53.120;8.764;2023-04-03T07:08:41;103589.19;;;1.37;67.23
54920;BME280;63804;53.120;8.764;2023-04-03T07:11:08;103595.34;;;1.51;67.05
54920;BME280;63804;53.120;8.764;2023-04-03T07:13:43;103591.88;;;1.67;66.94
54920;BME280;63804;53.120;8.764;2023-04-03T07:16:15;103597.97;;;1.77;66.36
54920;BME280;63804;53.120;8.764;2023-04-03T07:18:41;103597.13;;;1.78;66.38
54920;BME280;63804;53.120;8.764;2023-04-03T07:21:06;103601.50;;;1.90;66.20
54920;BME280;63804;53.120;8.764;2023-04-03T07:23:33;103604.13;;;2.01;65.25
54920;BME280;63804;53.120;8.764;2023-04-03T07:25:59;103607.59;;;2.04;65.59
54920;BME280;63804;53.120;8.764;2023-04-03T07:28:25;103609.34;;;2.05;65.36
54920;BME280;63804;53.120;8.764;2023-04-03T07:31:03;103607.59;;;2.06;65.98
54920;BME280;63804;53.120;8.764;2023-04-03T07:33:29;103608.47;;;2.15;65.53
54920;BME280;63804;53.120;8.764;2023-04-03T07:35:55;103610.22;;;2.23;65.33
54920;BME280;63804;53.120;8.764;2023-04-03T07:38:20;103606.69;;;2.30;65.15
54920;BME280;63804;53.120;8.764;2023-04-03T07:40:47;103607.56;;;2.41;64.42
54920;BME280;63804;53.120;8.764;2023-04-03T07:43:14;103604.94;;;2.50;64.55
54920;BME280;63804;53.120;8.764;2023-04-03T07:45:40;103610.16;;;2.62;63.85
54920;BME280;63804;53.120;8.764;2023-04-03T07:48:06;103605.72;;;2.69;63.91
54920;BME280;63804;53.120;8.764;2023-04-03T07:50:31;103603.97;;;2.76;63.30
54920;BME280;63804;53.120;8.764;2023-04-03T07:52:58;103601.31;;;2.93;62.36
54920;BME280;63804;53.120;8.764;2023-04-03T07:55:24;103595.16;;;2.94;60.81
54920;BME280;63804;53.120;8.764;2023-04-03T07:57:49;103597.81;;;2.87;60.81
54920;BME280;63804;53.120;8.764;2023-04-03T08:00:16;103605.66;;;2.91;61.18
54920;BME280;63804;53.120;8.764;2023-04-03T08:02:48;103605.66;;;2.95;59.46
54920;BME280;63804;53.120;8.764;2023-04-03T08:05:17;103600.38;;;3.04;58.92
54920;BME280;63804;53.120;8.764;2023-04-03T08:07:43;103600.31;;;3.13;58.26
54920;BME280;63804;53.120;8.764;2023-04-03T08:10:08;103597.66;;;3.20;57.99
54920;BME280;63804;53.120;8.764;2023-04-03T08:12:34;103594.97;;;3.32;57.72
54920;BME280;63804;53.120;8.764;2023-04-03T08:15:00;103599.25;;;3.47;57.23
54920;BME280;63804;53.120;8.764;2023-04-03T08:17:26;103594.84;;;3.53;56.33
54920;BME280;63804;53.120;8.764;2023-04-03T08:19:52;103600.06;;;3.58;55.26
54920;BME280;63804;53.120;8.764;2023-04-03T08:22:17;103595.69;;;3.55;54.13
54920;BME280;63804;53.120;8.764;2023-04-03T08:24:43;103597.47;;;3.52;54.50
54920;BME280;63804;53.120;8.764;2023-04-03T08:27:08;103592.13;;;3.64;53.84
54920;BME280;63804;53.120;8.764;2023-04-03T08:29:34;103590.34;;;3.68;53.48
54920;BME280;63804;53.120;8.764;2023-04-03T08:31:59;103587.72;;;3.69;52.24
54920;BME280;63804;53.120;8.764;2023-04-03T08:34:25;103585.06;;;3.71;51.87
54920;BME280;63804;53.120;8.764;2023-04-03T08:36:51;103589.44;;;3.72;49.79
54920;BME280;63804;53.120;8.764;2023-04-03T08:39:16;103590.34;;;3.69;49.89
54920;BME280;63804;53.120;8.764;2023-04-03T08:41:43;103594.66;;;3.75;50.42
54920;BME280;63804;53.120;8.764;2023-04-03T08:44:35;103596.34;;;3.86;48.74
54920;BME280;63804;53.120;8.764;2023-04-03T08:47:45;103585.81;;;3.88;48.25
54920;BME280;63804;53.120;8.764;2023-04-03T08:50:15;103581.38;;;3.99;49.15
54920;BME280;63804;53.120;8.764;2023-04-03T08:52:51;103583.09;;;3.99;48.62
54920;BME280;63804;53.120;8.764;2023-04-03T08:55:29;103585.69;;;4.05;48.18
54920;BME280;63804;53.120;8.764;2023-04-03T08:58:49;103578.59;;;4.13;48.75
54920;BME280;63804;53.120;8.764;2023-04-03T09:01:03;103575.06;;;4.14;47.86
54920;BME280;63804;53.120;8.764;2023-04-03T09:03:32;103583.81;;;4.18;47.68
54920;BME280;63804;53.120;8.764;2023-04-03T09:06:15;103577.63;;;4.22;46.15
54920;BME280;63804;53.120;8.764;2023-04-03T09:14:22;103573.22;;;4.25;43.83
54920;BME280;63804;53.120;8.764;2023-04-03T09:16:56;103574.06;;;4.30;45.44
54920;BME280;63804;53.120;8.764;2023-04-03T09:22:21;103568.63;;;4.44;44.31
54920;BME280;63804;53.120;8.764;2023-04-03T09:24:55;103565.06;;;4.48;45.07
54920;BME280;63804;53.120;8.764;2023-04-03T09:27:22;103575.50;;;4.57;44.41
54920;BME280;63804;53.120;8.764;2023-04-03T09:29:52;103563.22;;;4.58;44.13
54920;BME280;63804;53.120;8.764;2023-04-03T09:32:28;103573.72;;;4.59;43.81
54920;BME280;63804;53.120;8.764;2023-04-03T09:34:57;103564.94;;;4.61;43.53
54920;BME280;63804;53.120;8.764;2023-04-03T09:40:03;103563.13;;;4.66;42.87
54920;BME280;63804;53.120;8.764;2023-04-03T09:42:31;103562.13;;;4.76;43.20
54920;BME280;63804;53.120;8.764;2023-04-03T09:45:02;103559.44;;;4.79;43.08
54920;BME280;63804;53.120;8.764;2023-04-03T09:47:31;103553.28;;;4.81;43.41
54920;BME280;63804;53.120;8.764;2023-04-03T09:52:40;103549.63;;;4.90;42.10
54920;BME280;63804;53.120;8.764;2023-04-03T09:55:16;103543.47;;;4.93;41.06
54920;BME280;63804;53.120;8.764;2023-04-03T09:57:43;103545.16;;;4.97;41.18
54920;BME280;63804;53.120;8.764;2023-04-03T10:00:28;103544.38;;;4.90;39.15
54920;BME280;63804;53.120;8.764;2023-04-03T10:02:56;103541.69;;;4.93;40.56
54920;BME280;63804;53.120;8.764;2023-04-03T10:05:33;103539.88;;;5.00;40.77
54920;BME280;63804;53.120;8.764;2023-04-03T10:10:42;103536.31;;;5.01;40.73
54920;BME280;63804;53.120;8.764;2023-04-03T10:13:12;103542.38;;;5.07;41.44
54920;BME280;63804;53.120;8.764;2023-04-03T10:15:45;103537.91;;;5.13;40.49
54920;BME280;63804;53.120;8.764;2023-04-03T10:21:46;103533.59;;;5.08;38.46
54920;BME280;63804;53.120;8.764;2023-04-03T10:24:23;103535.38;;;5.06;38.72
54920;BME280;63804;53.120;8.764;2023-04-03T10:29:50;103529.06;;;5.18;39.03
54920;BME280;63804;53.120;8.764;2023-04-03T10:32:37;103521.88;;;5.28;39.35
54920;BME280;63804;53.120;8.764;2023-04-03T10:35:18;103522.81;;;5.25;38.85
54920;BME280;63804;53.120;8.764;2023-04-03T10:38:05;103522.69;;;5.31;39.08
54920;BME280;63804;53.120;8.764;2023-04-03T10:41:02;103515.53;;;5.40;38.90
54920;BME280;63804;53.120;8.764;2023-04-03T10:48:45;103507.41;;;5.53;39.34
54920;BME280;63804;53.120;8.764;2023-04-03T10:53:57;103498.66;;;5.51;39.15
54920;BME280;63804;53.120;8.764;2023-04-03T10:56:38;103502.31;;;5.44;38.46
54920;BME280;63804;53.120;8.764;2023-04-03T10:59:31;103500.38;;;5.55;38.18
54920;BME280;63804;53.120;8.764;2023-04-03T11:04:46;103493.25;;;5.61;39.07
54920;BME280;63804;53.120;8.764;2023-04-03T11:07:21;103498.34;;;5.70;38.33
54920;BME280;63804;53.120;8.764;2023-04-03T11:09:56;103479.97;;;5.65;38.39
54920;BME280;63804;53.120;8.764;2023-04-03T11:12:36;103479.78;;;5.74;38.89
54920;BME280;63804;53.120;8.764;2023-04-03T11:15:04;103482.34;;;5.80;39.14
54920;BME280;63804;53.120;8.764;2023-04-03T11:17:37;103476.09;;;5.85;37.92
54920;BME280;63804;53.120;8.764;2023-04-03T11:20:20;103484.91;;;5.84;37.08
54920;BME280;63804;53.120;8.764;2023-04-03T11:22:58;103470.88;;;5.81;37.60
54920;BME280;63804;53.120;8.764;2023-04-03T11:25:26;103466.47;;;5.82;36.78
54920;BME280;63804;53.120;8.764;2023-04-03T11:28:00;103462.91;;;5.86;38.41
54920;BME280;63804;53.120;8.764;2023-04-03T11:30:34;103464.59;;;5.89;38.19
54920;BME280;63804;53.120;8.764;2023-04-03T11:35:59;103453.94;;;5.95;38.18
54920;BME280;63804;53.120;8.764;2023-04-03T11:38:34;103452.16;;;5.95;38.39
54920;BME280;63804;53.120;8.764;2023-04-03T11:41:03;103453.84;;;5.99;38.01
54920;BME280;63804;53.120;8.764;2023-04-03T11:43:31;103449.38;;;6.03;37.90
54920;BME280;63804;53.120;8.764;2023-04-03T11:46:04;103439.56;;;6.10;37.58
54920;BME280;63804;53.120;8.764;2023-04-03T11:51:02;103433.34;;;6.14;38.29
54920;BME280;63804;53.120;8.764;2023-04-03T11:53:47;103427.09;;;6.18;38.63
54920;BME280;63804;53.120;8.764;2023-04-03T12:04:17;103423.19;;;6.37;37.44
54920;BME280;63804;53.120;8.764;2023-04-03T12:14:54;103417.91;;;6.37;37.98
54920;BME280;63804;53.120;8.764;2023-04-03T12:17:25;103413.59;;;6.31;37.27
54920;BME280;63804;53.120;8.764;2023-04-03T12:19:51;103410.06;;;6.31;37.33
54920;BME280;63804;53.120;8.764;2023-04-03T12:22:19;103406.44;;;6.37;37.50
54920;BME280;63804;53.120;8.764;2023-04-03T12:24:51;103405.44;;;6.44;37.73
54920;BME280;63804;53.120;8.764;2023-04-03T12:27:25;103407.06;;;6.51;37.76
54920;BME280;63804;53.120;8.764;2023-04-03T12:38:42;103385.91;;;6.88;36.55
54920;BME280;63804;53.120;8.764;2023-04-03T12:41:37;103399.00;;;6.93;36.15
54920;BME280;63804;53.120;8.764;2023-04-03T12:46:52;103384.19;;;6.87;36.93
54920;BME280;63804;53.120;8.764;2023-04-03T12:49:33;103381.69;;;6.81;35.71
54920;BME280;63804;53.120;8.764;2023-04-03T12:52:04;103384.81;;;6.98;36.27
54920;BME280;63804;53.120;8.764;2023-04-03T12:54:40;103365.16;;;7.09;35.57
54920;BME280;63804;53.120;8.764;2023-04-03T12:59:45;103362.81;;;7.31;36.12
54920;BME280;63804;53.120;8.764;2023-04-03T13:04:43;103360.56;;;7.15;36.07
54920;BME280;63804;53.120;8.764;2023-04-03T13:07:40;103365.00;;;7.15;35.68
54920;BME280;63804;53.120;8.764;2023-04-03T13:12:50;103358.97;;;7.10;36.53
54920;BME280;63804;53.120;8.764;2023-04-03T13:15:19;103356.19;;;7.16;37.03
54920;BME280;63804;53.120;8.764;2023-04-03T13:17:45;103350.78;;;7.19;37.14
54920;BME280;63804;53.120;8.764;2023-04-03T13:20:26;103349.00;;;7.21;37.76
54920;BME280;63804;53.120;8.764;2023-04-03T13:23:02;103354.00;;;6.97;36.85
54920;BME280;63804;53.120;8.764;2023-04-03T13:25:33;103349.28;;;6.74;37.69
54920;BME280;63804;53.120;8.764;2023-04-03T13:28:02;103350.53;;;6.58;38.44
54920;BME280;63804;53.120;8.764;2023-04-03T13:30:31;103343.28;;;6.68;37.97
54920;BME280;63804;53.120;8.764;2023-04-03T13:33:00;103342.06;;;6.81;38.17
54920;BME280;63804;53.120;8.764;2023-04-03T13:35:32;103331.28;;;6.90;37.78
54920;BME280;63804;53.120;8.764;2023-04-03T13:38:03;103333.53;;;7.06;37.28
54920;BME280;63804;53.120;8.764;2023-04-03T13:40:29;103333.53;;;7.04;36.71
54920;BME280;63804;53.120;8.764;2023-04-03T13:43:24;103332.69;;;7.03;35.42
54920;BME280;63804;53.120;8.764;2023-04-03T13:45:59;103335.25;;;7.07;35.21
54920;BME280;63804;53.120;8.764;2023-04-03T13:48:26;103327.09;;;7.16;35.84
54920;BME280;63804;53.120;8.764;2023-04-03T13:51:01;103322.94;;;7.38;35.92
54920;BME280;63804;53.120;8.764;2023-04-03T13:53:29;103323.06;;;7.35;36.16
54920;BME280;63804;53.120;8.764;2023-04-03T13:56:08;103316.00;;;7.34;36.16
54920;BME280;63804;53.120;8.764;2023-04-03T13:58:35;103320.50;;;7.32;36.60
54920;BME280;63804;53.120;8.764;2023-04-03T14:03:57;103315.34;;;7.26;35.63
54920;BME280;63804;53.120;8.764;2023-04-03T14:06:23;103306.56;;;7.25;34.78
54920;BME280;63804;53.120;8.764;2023-04-03T14:08:50;103303.78;;;7.30;36.47
54920;BME280;63804;53.120;8.764;2023-04-03T14:11:16;103304.75;;;7.27;35.03
54920;BME280;63804;53.120;8.764;2023-04-03T14:13:44;103309.66;;;7.41;35.54
54920;BME280;63804;53.120;8.764;2023-04-03T14:16:22;103305.41;;;7.67;35.09
54920;BME280;63804;53.120;8.764;2023-04-03T14:18:49;103307.44;;;7.88;35.78
54920;BME280;63804;53.120;8.764;2023-04-03T14:21:17;103302.94;;;7.90;35.81
54920;BME280;63804;53.120;8.764;2023-04-03T14:23:44;103301.19;;;7.60;36.11
54920;BME280;63804;53.120;8.764;2023-04-03T14:26:15;103301.91;;;7.35;37.20
54920;BME280;63804;53.120;8.764;2023-04-03T14:28:43;103304.34;;;7.43;37.37
54920;BME280;63804;53.120;8.764;2023-04-03T14:31:11;103307.34;;;7.29;37.42
54920;BME280;63804;53.120;8.764;2023-04-03T14:33:37;103307.91;;;7.08;37.84
54920;BME280;63804;53.120;8.764;2023-04-03T14:36:25;103307.50;;;6.90;37.20
54920;BME280;63804;53.120;8.764;2023-04-03T14:38:51;103303.94;;;6.91;38.15
54920;BME280;63804;53.120;8.764;2023-04-03T14:41:21;103308.59;;;7.16;38.31
54920;BME280;63804;53.120;8.764;2023-04-03T14:43:48;103303.53;;;7.39;36.37
54920;BME280;63804;53.120;8.764;2023-04-03T14:46:16;103299.56;;;7.56;35.81
54920;BME280;63804;53.120;8.764;2023-04-03T14:48:43;103288.75;;;7.63;35.80
54920;BME280;63804;53.120;8.764;2023-04-03T14:51:11;103286.81;;;7.70;35.67